createdAt,value
2019-04-13T00:02:08.732Z,33.37
2019-04-13T00:04:57.376Z,36.43
2019-04-13T00:07:25.965Z,32.77
2019-04-13T00:09:54.686Z,39.40
2019-04-13T00:12:27.918Z,33.27
2019-04-13T00:14:56.662Z,36.47
2019-04-13T00:17:25.242Z,38.20
2019-04-13T00:19:54.424Z,32.57
2019-04-13T00:22:23.266Z,36.20
2019-04-13T00:24:51.932Z,31.87
2019-04-13T00:27:20.665Z,29.30
2019-04-13T00:29:49.372Z,38.53
2019-04-13T00:32:18.406Z,34.30
2019-04-13T00:34:46.998Z,36.53
2019-04-13T00:37:15.603Z,34.60
2019-04-13T00:39:44.372Z,31.90
2019-04-13T00:42:13.162Z,37.33
2019-04-13T00:44:41.874Z,34.50
2019-04-13T00:47:10.465Z,33.10
2019-04-13T00:49:39.079Z,40.87
2019-04-13T00:52:07.680Z,36.27
2019-04-13T00:54:36.904Z,33.93
2019-04-13T00:57:05.579Z,32.90
2019-04-13T00:59:34.254Z,34.40
2019-04-13T01:02:03.194Z,31.70
2019-04-13T01:04:31.805Z,36.60
2019-04-13T01:07:00.441Z,36.20
2019-04-13T01:09:29.019Z,34.67
2019-04-13T01:11:57.739Z,34.30
2019-04-13T01:14:26.418Z,34.93
2019-04-13T01:16:55.123Z,32.77
2019-04-13T01:19:23.930Z,36.17
2019-04-13T01:21:52.718Z,31.33
2019-04-13T01:24:21.319Z,33.93
2019-04-13T01:26:50.062Z,35.17
2019-04-13T01:29:18.798Z,31.00
2019-04-13T01:31:47.618Z,36.63
2019-04-13T01:34:16.295Z,30.97
2019-04-13T01:36:44.973Z,28.10
2019-04-13T01:39:13.593Z,32.90
2019-04-13T01:41:42.214Z,37.40
2019-04-13T01:44:10.895Z,35.00
2019-04-13T01:46:40.065Z,36.13
2019-04-13T01:49:08.831Z,50.03
2019-04-13T01:51:37.609Z,37.23
2019-04-13T01:54:06.377Z,41.10
2019-04-13T01:56:35.059Z,42.00
2019-04-13T01:59:03.652Z,35.90
2019-04-13T02:01:40.653Z,36.27
2019-04-13T02:04:13.867Z,35.30
2019-04-13T02:06:44.123Z,33.47
2019-04-13T02:09:23.513Z,36.60
2019-04-13T02:11:52.219Z,44.13
2019-04-13T02:14:20.826Z,40.70
2019-04-13T02:16:49.393Z,38.57
2019-04-13T02:19:18.119Z,40.87
2019-04-13T02:21:48.293Z,35.70
2019-04-13T02:24:16.925Z,35.60
2019-04-13T02:26:45.685Z,39.67
2019-04-13T02:29:14.900Z,39.17
2019-04-13T02:31:43.622Z,45.37
2019-04-13T02:34:12.429Z,42.70
2019-04-13T02:36:41.128Z,42.00
2019-04-13T02:39:09.666Z,39.20
2019-04-13T02:41:38.313Z,44.20
2019-04-13T02:44:06.926Z,35.97
2019-04-13T02:46:36.071Z,46.10
2019-04-13T02:49:04.828Z,43.57
2019-04-13T02:51:33.679Z,45.73
2019-04-13T02:54:02.244Z,41.90
2019-04-13T02:56:30.843Z,54.37
2019-04-13T02:58:59.469Z,47.93
2019-04-13T03:01:28.564Z,48.87
2019-04-13T03:03:57.272Z,43.43
2019-04-13T03:06:25.791Z,44.77
2019-04-13T03:08:54.372Z,43.37
2019-04-13T03:11:23.029Z,40.30
2019-04-13T03:13:51.624Z,55.37
2019-04-13T03:16:33.775Z,56.60
2019-04-13T03:19:04.184Z,47.80
2019-04-13T03:21:32.934Z,53.73
2019-04-13T03:24:03.031Z,47.03
2019-04-13T03:26:31.765Z,53.07
2019-04-13T03:29:00.359Z,48.50
2019-04-13T03:31:29.072Z,43.90
2019-04-13T03:33:57.594Z,42.07
2019-04-13T03:36:26.343Z,43.87
2019-04-13T03:38:55.072Z,42.87
2019-04-13T03:41:25.064Z,44.93
2019-04-13T03:43:53.782Z,47.10
2019-04-13T03:46:22.558Z,43.17
2019-04-13T03:48:51.339Z,43.90
2019-04-13T03:51:20.128Z,44.60
2019-04-13T03:53:48.903Z,47.47
2019-04-13T03:56:17.606Z,44.17
2019-04-13T03:58:46.794Z,49.43
2019-04-13T04:01:15.456Z,44.90
2019-04-13T04:03:44.456Z,50.00
2019-04-13T04:06:13.680Z,55.17
2019-04-13T04:08:42.434Z,59.77
2019-04-13T04:11:11.126Z,52.03
2019-04-13T04:13:39.871Z,51.30
2019-04-13T04:16:09.015Z,52.37
2019-04-13T04:18:37.800Z,48.50
2019-04-13T04:21:06.523Z,51.73
2019-04-13T04:23:35.312Z,46.63
2019-04-13T04:26:03.916Z,50.87
2019-04-13T04:28:32.595Z,51.03
2019-04-13T04:31:02.763Z,44.40
2019-04-13T04:33:31.537Z,48.70
2019-04-13T04:36:00.322Z,64.50
2019-04-13T04:38:29.067Z,47.00
2019-04-13T04:40:57.867Z,51.10
2019-04-13T04:43:26.486Z,54.10
2019-04-13T04:45:55.115Z,61.10
2019-04-13T04:48:23.634Z,54.80
2019-04-13T04:50:52.987Z,73.80
2019-04-13T04:53:21.605Z,56.83
2019-04-13T04:55:50.385Z,53.93
2019-04-13T04:58:19.009Z,55.43
2019-04-13T05:00:47.671Z,56.80
2019-04-13T05:03:16.890Z,72.80
2019-04-13T05:05:45.520Z,136.07
2019-04-13T05:08:14.679Z,94.13
2019-04-13T05:10:43.501Z,88.83
2019-04-13T05:13:12.151Z,78.00
2019-04-13T05:15:40.751Z,74.23
2019-04-13T05:18:09.483Z,81.33
2019-04-13T05:20:38.085Z,94.10
2019-04-13T05:23:07.111Z,90.23
2019-04-13T05:25:35.703Z,82.40
2019-04-13T05:28:04.411Z,71.87
2019-04-13T05:30:33.503Z,77.90
2019-04-13T05:33:02.129Z,76.93
2019-04-13T05:35:30.853Z,78.17
2019-04-13T05:38:00.955Z,69.27
2019-04-13T05:40:29.734Z,60.77
2019-04-13T05:42:58.367Z,73.33
2019-04-13T05:45:26.973Z,61.10
2019-04-13T05:47:55.582Z,66.63
2019-04-13T05:50:24.429Z,68.17
2019-04-13T05:52:53.236Z,63.40
2019-04-13T05:55:21.853Z,73.77
2019-04-13T05:57:51.051Z,78.77
2019-04-13T06:00:20.057Z,76.83
2019-04-13T06:02:48.784Z,72.40
2019-04-13T06:05:17.438Z,74.80
2019-04-13T06:07:46.020Z,70.10
2019-04-13T06:10:14.823Z,63.33
2019-04-13T06:12:43.539Z,68.83
2019-04-13T06:15:12.662Z,57.50
2019-04-13T06:17:41.399Z,60.00
2019-04-13T06:20:13.145Z,59.23
2019-04-13T06:22:41.297Z,63.90
2019-04-13T06:25:10.533Z,54.43
2019-04-13T06:27:42.153Z,59.00
2019-04-13T06:30:26.010Z,52.53
2019-04-13T06:32:56.294Z,52.30
2019-04-13T06:35:26.752Z,49.47
2019-04-13T06:37:55.574Z,59.73
2019-04-13T06:40:24.118Z,49.83
2019-04-13T06:42:54.698Z,57.50
2019-04-13T06:45:23.194Z,49.47
2019-04-13T06:47:52.090Z,52.63
2019-04-13T06:50:20.690Z,44.00
2019-04-13T06:52:49.352Z,59.33
2019-04-13T06:55:18.371Z,48.70
2019-04-13T06:57:47.226Z,48.50
2019-04-13T07:00:16.440Z,41.33
2019-04-13T07:02:45.205Z,40.50
2019-04-13T07:05:13.891Z,50.73
2019-04-13T07:07:51.199Z,40.90
2019-04-13T07:10:44.443Z,47.13
2019-04-13T07:13:18.670Z,48.10
2019-04-13T07:15:58.434Z,44.90
2019-04-13T07:18:27.037Z,43.37
2019-04-13T07:20:55.621Z,48.27
2019-04-13T07:23:25.421Z,44.53
2019-04-13T07:25:54.762Z,44.27
2019-04-13T07:28:23.961Z,65.97
2019-04-13T07:30:52.740Z,49.07
2019-04-13T07:33:21.432Z,48.03
2019-04-13T07:35:50.814Z,49.37
2019-04-13T07:38:19.433Z,54.27
2019-04-13T07:40:51.294Z,46.10
2019-04-13T07:43:18.446Z,53.20
2019-04-13T07:45:50.694Z,55.60
2019-04-13T07:48:20.860Z,44.20
2019-04-13T07:50:54.735Z,47.83
2019-04-13T07:53:26.031Z,44.30
2019-04-13T07:55:57.353Z,56.73
2019-04-13T07:58:26.059Z,50.80
2019-04-13T08:00:58.471Z,40.97
2019-04-13T08:03:25.079Z,44.63
2019-04-13T08:05:53.878Z,41.50
2019-04-13T08:08:22.706Z,48.60
2019-04-13T08:10:51.318Z,46.70
2019-04-13T08:13:20.058Z,43.37
2019-04-13T08:15:48.818Z,43.73
2019-04-13T08:18:19.191Z,47.97
2019-04-13T08:20:47.978Z,53.17
2019-04-13T08:23:16.588Z,38.93
2019-04-13T08:25:45.179Z,41.57
2019-04-13T08:28:15.644Z,45.83
2019-04-13T08:30:49.084Z,40.33
2019-04-13T08:33:15.033Z,40.20
2019-04-13T08:35:43.750Z,34.03
2019-04-13T08:38:13.509Z,38.83
2019-04-13T08:40:46.271Z,39.63
2019-04-13T08:43:12.929Z,35.30
2019-04-13T08:45:44.260Z,40.70
2019-04-13T08:48:11.865Z,38.40
2019-04-13T08:50:40.511Z,35.07
2019-04-13T08:53:09.053Z,37.70
2019-04-13T08:55:39.774Z,36.80
2019-04-13T08:58:08.215Z,36.27
2019-04-13T09:00:37.016Z,39.07
2019-04-13T09:03:05.903Z,43.30
2019-04-13T09:05:34.503Z,42.07
2019-04-13T09:08:03.198Z,41.00
2019-04-13T09:10:33.193Z,38.83
2019-04-13T09:13:01.845Z,37.33
2019-04-13T09:15:31.125Z,45.00
2019-04-13T09:18:18.635Z,43.27
2019-04-13T09:20:51.953Z,42.80
2019-04-13T09:23:20.734Z,41.50
2019-04-13T09:25:49.491Z,39.00
2019-04-13T09:28:18.084Z,36.77
2019-04-13T09:30:46.822Z,38.63
2019-04-13T09:33:15.572Z,37.00
2019-04-13T09:35:44.356Z,43.10
2019-04-13T09:38:15.138Z,40.10
2019-04-13T09:40:43.776Z,35.33
2019-04-13T09:43:21.326Z,43.57
2019-04-13T09:45:50.128Z,40.77
2019-04-13T09:48:18.698Z,38.10
2019-04-13T09:50:47.327Z,33.37
2019-04-13T09:53:16.297Z,33.83
2019-04-13T09:55:49.716Z,56.40
2019-04-13T09:58:16.048Z,32.87
2019-04-13T10:00:45.516Z,39.20
2019-04-13T10:03:14.463Z,37.73
2019-04-13T10:05:43.258Z,37.03
2019-04-13T10:08:11.902Z,36.90
2019-04-13T10:10:41.820Z,36.93
2019-04-13T10:13:15.037Z,38.40
2019-04-13T10:16:02.052Z,41.30
2019-04-13T10:18:38.715Z,43.40
2019-04-13T10:21:07.287Z,42.90
2019-04-13T10:23:35.959Z,43.20
2019-04-13T10:26:04.728Z,47.30
2019-04-13T10:28:36.146Z,38.93
2019-04-13T10:31:03.918Z,44.23
2019-04-13T10:33:32.526Z,47.70
2019-04-13T10:36:01.195Z,47.73
2019-04-13T10:38:30.091Z,41.43
2019-04-13T10:40:58.879Z,40.87
2019-04-13T10:43:27.659Z,43.23
2019-04-13T10:45:58.188Z,43.27
2019-04-13T10:48:31.278Z,46.90
2019-04-13T10:51:01.621Z,47.17
2019-04-13T10:53:30.299Z,50.17
2019-04-13T10:55:58.934Z,44.43
2019-04-13T10:58:28.201Z,46.83
2019-04-13T11:00:56.929Z,39.17
2019-04-13T11:03:26.449Z,46.87
2019-04-13T11:05:55.133Z,50.60
2019-04-13T11:08:25.616Z,44.63
2019-04-13T11:10:54.781Z,52.60
2019-04-13T11:13:24.021Z,43.70
2019-04-13T11:15:53.099Z,45.37
2019-04-13T11:18:22.240Z,45.40
2019-04-13T11:20:51.652Z,44.07
2019-04-13T11:23:20.795Z,51.40
2019-04-13T11:25:50.014Z,45.43
2019-04-13T11:28:21.564Z,45.40
2019-04-13T11:30:49.316Z,50.50
2019-04-13T11:33:20.508Z,52.47
2019-04-13T11:35:48.249Z,44.20
2019-04-13T11:38:18.628Z,50.23
2019-04-13T11:40:49.055Z,56.87
2019-04-13T11:43:37.125Z,52.73
2019-04-13T11:46:10.026Z,53.67
2019-04-13T11:48:54.884Z,51.00
2019-04-13T11:51:32.203Z,51.50
2019-04-13T11:54:03.770Z,50.53
2019-04-13T11:56:31.541Z,49.97
2019-04-13T11:59:00.204Z,45.80
2019-04-13T12:01:45.322Z,48.93
2019-04-13T12:04:17.559Z,46.33
2019-04-13T12:06:50.636Z,42.33
2019-04-13T12:09:29.028Z,50.00
2019-04-13T12:12:07.785Z,45.83
2019-04-13T12:14:38.132Z,40.37
2019-04-13T12:17:11.210Z,48.63
2019-04-13T12:19:46.931Z,51.20
2019-04-13T12:22:17.081Z,59.63
2019-04-13T12:24:45.784Z,44.73
2019-04-13T12:27:14.387Z,50.40
2019-04-13T12:29:42.933Z,51.83
2019-04-13T12:32:16.115Z,46.47
2019-04-13T12:34:44.784Z,42.17
2019-04-13T12:37:13.364Z,43.60
2019-04-13T12:39:42.084Z,44.80
2019-04-13T12:42:10.852Z,52.67
2019-04-13T12:44:40.789Z,48.60
2019-04-13T12:47:11.339Z,49.23
2019-04-13T12:49:39.870Z,46.70
2019-04-13T12:52:08.557Z,43.23
2019-04-13T12:54:37.956Z,50.80
2019-04-13T12:57:06.697Z,62.17
2019-04-13T12:59:36.520Z,45.10
2019-04-13T13:02:07.510Z,39.40
2019-04-13T13:04:49.669Z,55.67
2019-04-13T13:07:18.396Z,38.97
2019-04-13T13:09:47.046Z,41.90
2019-04-13T13:12:15.773Z,42.10
2019-04-13T13:14:44.575Z,45.27
2019-04-13T13:17:13.447Z,38.63
2019-04-13T13:19:42.360Z,44.33
2019-04-13T13:22:15.709Z,41.23
2019-04-13T13:24:43.275Z,41.47
2019-04-13T13:27:12.545Z,45.33
2019-04-13T13:29:41.186Z,41.60
2019-04-13T13:32:09.713Z,49.60
2019-04-13T13:34:38.401Z,44.13
2019-04-13T13:37:07.140Z,38.50
2019-04-13T13:39:35.743Z,44.97
2019-04-13T13:42:04.377Z,40.07
2019-04-13T13:44:33.009Z,43.90
2019-04-13T13:47:01.695Z,40.20
2019-04-13T13:49:30.293Z,40.23
2019-04-13T13:52:01.208Z,43.13
2019-04-13T13:54:29.351Z,38.63
2019-04-13T13:57:00.412Z,41.40
2019-04-13T13:59:28.442Z,43.80
2019-04-13T14:01:58.817Z,36.57
2019-04-13T14:04:28.382Z,36.70
2019-04-13T14:07:00.566Z,38.60
2019-04-13T14:09:28.105Z,40.27
2019-04-13T14:11:57.672Z,43.07
2019-04-13T14:14:26.237Z,47.30
2019-04-13T14:16:54.843Z,52.47
2019-04-13T14:19:24.131Z,41.70
2019-04-13T14:21:53.470Z,38.57
2019-04-13T14:24:22.761Z,35.53
2019-04-13T14:26:52.199Z,39.10
2019-04-13T14:29:21.481Z,40.77
2019-04-13T14:31:51.411Z,35.70
2019-04-13T14:34:20.657Z,37.63
2019-04-13T14:36:50.101Z,41.20
2019-04-13T14:39:19.320Z,46.50
2019-04-13T14:41:48.507Z,49.10
2019-04-13T14:44:19.562Z,54.20
2019-04-13T14:46:48.911Z,51.60
2019-04-13T14:49:18.365Z,38.63
2019-04-13T14:51:52.366Z,41.30
2019-04-13T14:54:19.632Z,40.73
2019-04-13T14:56:49.637Z,43.43
2019-04-13T14:59:18.935Z,44.37
2019-04-13T15:01:48.367Z,35.07
2019-04-13T15:04:17.490Z,34.13
2019-04-13T15:06:46.628Z,35.17
2019-04-13T15:09:17.529Z,33.60
2019-04-13T15:11:46.691Z,39.93
2019-04-13T15:14:17.253Z,42.00
2019-04-13T15:16:48.169Z,43.10
2019-04-13T15:19:30.737Z,36.50
2019-04-13T15:21:48.321Z,35.30
2019-04-13T15:24:19.706Z,38.03
2019-04-13T15:26:52.050Z,36.97
2019-04-13T15:29:22.347Z,36.00
2019-04-13T15:31:51.015Z,36.27
2019-04-13T15:34:20.466Z,43.37
2019-04-13T15:36:50.919Z,41.50
2019-04-13T15:39:20.622Z,41.43
2019-04-13T15:42:02.143Z,40.43
2019-04-13T15:44:22.048Z,39.50
2019-04-13T15:46:52.034Z,29.33
2019-04-13T15:49:23.106Z,46.40
2019-04-13T15:51:52.986Z,36.20
2019-04-13T15:54:22.259Z,36.03
2019-04-13T15:56:51.104Z,46.97
2019-04-13T15:59:21.329Z,40.10
2019-04-13T16:01:51.554Z,43.20
2019-04-13T16:04:20.838Z,41.00
2019-04-13T16:06:50.801Z,38.03
2019-04-13T16:09:37.109Z,37.70
2019-04-13T16:12:17.042Z,37.37
2019-04-13T16:14:46.342Z,35.33
2019-04-13T16:17:15.232Z,47.10
2019-04-13T16:19:44.487Z,40.00
2019-04-13T16:22:13.468Z,50.43
2019-04-13T16:24:42.261Z,37.93
2019-04-13T16:27:12.320Z,41.93
2019-04-13T16:29:48.974Z,30.03
2019-04-13T16:32:23.077Z,34.00
2019-04-13T16:35:11.590Z,38.53
2019-04-13T16:37:42.149Z,41.60
2019-04-13T16:40:10.845Z,38.97
2019-04-13T16:42:39.710Z,41.43
2019-04-13T16:45:21.169Z,30.80
2019-04-13T16:47:54.243Z,39.53
2019-04-13T16:50:30.487Z,38.30
2019-04-13T16:53:10.209Z,41.07
2019-04-13T16:55:41.571Z,36.40
2019-04-13T16:58:17.625Z,37.70
2019-04-13T17:00:47.966Z,36.67
2019-04-13T17:03:20.871Z,36.63
2019-04-13T17:05:51.940Z,24.97
2019-04-13T17:08:21.917Z,42.57
2019-04-13T17:10:52.163Z,37.50
2019-04-13T17:13:21.796Z,37.47
2019-04-13T17:15:52.040Z,33.70
2019-04-13T17:18:25.305Z,33.20
2019-04-13T17:20:58.439Z,41.30
2019-04-13T17:23:35.767Z,40.23
2019-04-13T17:26:08.919Z,34.90
2019-04-13T17:28:55.840Z,34.80
2019-04-13T17:31:39.315Z,36.57
2019-04-13T17:34:19.268Z,38.13
2019-04-13T17:36:50.075Z,45.07
2019-04-13T17:39:18.919Z,35.70
2019-04-13T17:41:52.906Z,37.07
2019-04-13T17:44:23.186Z,40.77
2019-04-13T17:47:08.141Z,41.20
2019-04-13T17:49:57.641Z,37.87
2019-04-13T17:52:46.496Z,36.87
2019-04-13T17:55:33.796Z,37.30
2019-04-13T17:58:04.871Z,42.23
2019-04-13T18:00:53.893Z,50.90
2019-04-13T18:03:32.845Z,36.63
2019-04-13T18:06:10.804Z,43.07
2019-04-13T18:08:48.855Z,44.73
2019-04-13T18:11:28.282Z,43.60
2019-04-13T18:14:02.889Z,44.17
2019-04-13T18:16:34.320Z,43.07
2019-04-13T18:19:10.643Z,45.10
2019-04-13T18:21:40.459Z,58.00
2019-04-13T18:24:09.325Z,54.73
2019-04-13T18:26:37.907Z,53.63
2019-04-13T18:29:07.414Z,61.50
2019-04-13T18:31:36.220Z,49.97
2019-04-13T18:34:06.167Z,56.47
2019-04-13T18:36:36.259Z,50.20
2019-04-13T18:39:07.311Z,49.50
2019-04-13T18:41:37.199Z,49.17
2019-04-13T18:44:07.131Z,47.80
2019-04-13T18:46:36.311Z,51.07
2019-04-13T18:49:05.676Z,45.10
2019-04-13T18:51:35.500Z,47.43
2019-04-13T18:54:05.080Z,42.07
2019-04-13T18:56:33.783Z,42.03
2019-04-13T18:59:02.427Z,39.00
2019-04-13T19:01:32.373Z,48.33
2019-04-13T19:04:01.047Z,57.90
2019-04-13T19:06:29.780Z,62.13
2019-04-13T19:08:59.232Z,50.70
2019-04-13T19:11:27.910Z,52.73
2019-04-13T19:13:56.544Z,72.23
2019-04-13T19:16:25.602Z,52.80
2019-04-13T19:18:54.222Z,51.07
2019-04-13T19:21:24.412Z,61.60
2019-04-13T19:23:54.142Z,63.00
2019-04-13T19:26:22.891Z,63.80
2019-04-13T19:28:51.590Z,69.40
2019-04-13T19:31:20.795Z,65.90
2019-04-13T19:33:49.406Z,63.43
2019-04-13T19:36:18.117Z,61.43
2019-04-13T19:38:50.645Z,54.37
2019-04-13T19:41:18.846Z,57.43
2019-04-13T19:43:47.603Z,71.03
2019-04-13T19:46:16.640Z,88.27
2019-04-13T19:48:45.359Z,71.37
2019-04-13T19:51:14.046Z,79.27
2019-04-13T19:53:44.795Z,86.30
2019-04-13T19:56:16.971Z,73.07
2019-04-13T19:58:45.861Z,51.93
2019-04-13T20:01:17.371Z,56.03
2019-04-13T20:03:49.878Z,59.20
2019-04-13T20:06:22.400Z,46.00
2019-04-13T20:08:51.894Z,47.97
2019-04-13T20:11:22.605Z,48.67
2019-04-13T20:14:01.328Z,49.53
2019-04-13T20:16:25.364Z,49.10
2019-04-13T20:18:54.607Z,42.83
2019-04-13T20:21:24.277Z,51.37
2019-04-13T20:23:54.007Z,56.17
2019-04-13T20:26:23.542Z,49.63
2019-04-13T20:28:52.707Z,52.83
2019-04-13T20:31:23.043Z,58.03
2019-04-13T20:33:54.527Z,58.23
2019-04-13T20:36:24.764Z,59.87
2019-04-13T20:38:54.347Z,49.97
2019-04-13T20:41:26.842Z,60.47
2019-04-13T20:44:02.336Z,59.13
2019-04-13T20:46:25.708Z,54.80
2019-04-13T20:48:55.466Z,62.43
2019-04-13T20:51:24.284Z,56.07
2019-04-13T20:53:52.988Z,71.33
2019-04-13T20:56:22.858Z,63.07
2019-04-13T20:58:51.713Z,59.57
2019-04-13T21:01:23.460Z,56.93
2019-04-13T21:03:53.397Z,64.43
2019-04-13T21:06:23.913Z,52.00
2019-04-13T21:08:55.546Z,55.70
2019-04-13T21:11:23.481Z,60.23
2019-04-13T21:14:03.417Z,56.10
2019-04-13T21:16:23.541Z,57.17
2019-04-13T21:18:53.497Z,49.20
2019-04-13T21:21:22.285Z,49.00
2019-04-13T21:23:51.729Z,62.53
2019-04-13T21:26:23.556Z,58.30
2019-04-13T21:28:52.074Z,56.93
2019-04-13T21:31:21.750Z,56.40
2019-04-13T21:33:51.749Z,68.70
2019-04-13T21:36:21.702Z,58.97
2019-04-13T21:38:51.589Z,65.83
2019-04-13T21:41:21.654Z,63.43
2019-04-13T21:43:51.966Z,58.47
2019-04-13T21:46:21.905Z,56.40
2019-04-13T21:48:50.709Z,57.30
2019-04-13T21:51:31.137Z,60.53
2019-04-13T21:54:01.775Z,57.77
2019-04-13T21:56:31.412Z,62.37
2019-04-13T21:59:01.855Z,52.33
2019-04-13T22:01:38.906Z,60.50
2019-04-13T22:04:08.692Z,61.97
2019-04-13T22:06:38.746Z,56.83
2019-04-13T22:09:11.048Z,54.53
2019-04-13T22:11:40.848Z,59.80
2019-04-13T22:14:15.645Z,54.90
2019-04-13T22:16:41.348Z,49.53
2019-04-13T22:19:11.366Z,52.63
2019-04-13T22:21:41.403Z,58.03
2019-04-13T22:24:11.287Z,53.43
2019-04-13T22:26:40.064Z,48.70
2019-04-13T22:29:11.547Z,49.23
2019-04-13T22:31:59.830Z,53.17
2019-04-13T22:34:40.404Z,54.10
2019-04-13T22:37:10.304Z,54.60
2019-04-13T22:39:40.084Z,57.47
2019-04-13T22:42:09.902Z,59.10
2019-04-13T22:44:47.682Z,56.30
2019-04-13T22:47:10.465Z,52.10
2019-04-13T22:49:47.402Z,68.50
2019-04-13T22:52:34.569Z,65.87
2019-04-13T22:55:22.815Z,66.23
2019-04-13T22:57:52.185Z,54.10
2019-04-13T23:00:25.833Z,66.97
2019-04-13T23:02:56.157Z,60.57
2019-04-13T23:05:26.159Z,72.07
2019-04-13T23:07:54.929Z,55.70
2019-04-13T23:10:24.611Z,60.47
2019-04-13T23:12:54.996Z,50.80
2019-04-13T23:15:29.320Z,70.03
2019-04-13T23:17:55.850Z,55.83
2019-04-13T23:20:25.614Z,50.60
2019-04-13T23:22:54.427Z,52.43
2019-04-13T23:25:24.510Z,59.37
2019-04-13T23:27:53.431Z,56.13
2019-04-13T23:30:22.738Z,61.87
2019-04-13T23:32:51.475Z,57.47
2019-04-13T23:35:21.228Z,56.40
2019-04-13T23:37:50.044Z,66.93
2019-04-13T23:40:18.666Z,67.77
2019-04-13T23:42:48.374Z,65.03
2019-04-13T23:45:24.983Z,61.33
2019-04-13T23:47:49.805Z,59.13
2019-04-13T23:50:18.421Z,71.80
2019-04-13T23:52:48.005Z,57.87
2019-04-13T23:55:18.413Z,59.87
2019-04-13T23:57:48.733Z,69.10
